Time;durP1;ratioP1;P1;durP2;ratioP2;P2;SDS_P1;SDS_P2;PMS_P1;PMS_P2;Temp;Humidity;BMP_temperature;BMP_pressure;BME280_temperature;BME280_humidity;BME280_pressure;Samples;Min_cycle;Max_cycle;Signal;HPM_P1;HPM_P2
2022/01/09 00:01:02;;;;;;;8.48;3.50;;;;;;;-0.09;100.00;101180.36;1707959;83;21046;-59
2022/01/09 00:03:30;;;;;;;9.43;4.25;;;;;;;-0.11;100.00;101175.27;1701604;83;21082;-59
2022/01/09 00:05:57;;;;;;;7.50;3.47;;;;;;;0.00;100.00;101179.20;1712348;83;21031;-58
2022/01/09 00:08:24;;;;;;;7.97;3.70;;;;;;;0.01;100.00;101164.85;1672570;83;21019;-58
2022/01/09 00:10:52;;;;;;;7.40;3.47;;;;;;;0.07;100.00;101172.08;1707534;83;21036;-59
2022/01/09 00:13:19;;;;;;;7.20;3.90;;;;;;;0.05;100.00;101159.83;1706687;83;21043;-58
2022/01/09 00:15:46;;;;;;;14.00;4.60;;;;;;;0.11;100.00;101166.21;1700783;83;21020;-58
2022/01/09 00:18:15;;;;;;;9.60;4.55;;;;;;;0.09;100.00;101160.28;1677863;83;22170;-59
2022/01/09 00:20:43;;;;;;;9.63;3.62;;;;;;;0.08;100.00;101156.47;1700106;83;21480;-58
2022/01/09 00:23:12;;;;;;;10.18;4.47;;;;;;;0.05;100.00;101153.92;1695824;84;21075;-59
2022/01/09 00:25:39;;;;;;;13.85;4.60;;;;;;;0.09;100.00;101147.62;1691336;83;21078;-58
2022/01/09 00:28:05;;;;;;;10.78;4.85;;;;;;;0.12;100.00;101145.14;1692654;83;21048;-58
2022/01/09 00:30:33;;;;;;;8.53;3.60;;;;;;;0.14;100.00;101143.47;1690795;85;21063;-58
2022/01/09 00:33:00;;;;;;;10.65;4.65;;;;;;;0.12;100.00;101137.94;1691363;85;21478;-58
2022/01/09 00:35:28;;;;;;;10.43;4.47;;;;;;;0.09;100.00;101134.97;1691030;84;21110;-58
2022/01/09 00:37:55;;;;;;;10.93;4.92;;;;;;;0.10;100.00;101132.02;1692623;84;21520;-58
2022/01/09 00:40:22;;;;;;;10.68;4.53;;;;;;;0.08;100.00;101126.96;1690785;85;21113;-58
2022/01/09 00:42:49;;;;;;;9.28;4.50;;;;;;;0.08;100.00;101128.23;1693769;83;21031;-58
2022/01/09 00:45:17;;;;;;;8.65;4.20;;;;;;;0.11;100.00;101126.97;1693813;84;21047;-59
2022/01/09 00:47:45;;;;;;;7.70;4.10;;;;;;;0.13;100.00;101118.97;1667661;85;21032;-58
2022/01/09 00:50:14;;;;;;;8.88;4.50;;;;;;;0.12;100.00;101118.56;1696095;84;21035;-58
2022/01/09 00:52:41;;;;;;;9.05;4.17;;;;;;;0.07;100.00;101112.59;1696984;84;21083;-58
2022/01/09 00:55:10;;;;;;;7.47;4.28;;;;;;;0.05;100.00;101106.67;1691686;84;21139;-58
2022/01/09 00:57:37;;;;;;;10.78;5.28;;;;;;;0.01;100.00;101097.36;1695532;83;21051;-59
2022/01/09 01:00:07;;;;;;;7.75;4.05;;;;;;;-0.04;100.00;101085.94;1692832;84;21083;-58
2022/01/09 01:02:34;;;;;;;9.63;4.40;;;;;;;0.04;100.00;101077.14;1694364;84;21022;-60
2022/01/09 01:05:01;;;;;;;11.50;4.78;;;;;;;0.15;100.00;101073.42;1693182;84;21063;-58
2022/01/09 01:07:28;;;;;;;9.00;4.50;;;;;;;0.13;100.00;101067.08;1690935;85;21031;-59
2022/01/09 01:10:00;;;;;;;9.55;4.45;;;;;;;0.12;100.00;101062.87;1690945;83;21559;-58
2022/01/09 01:12:31;;;;;;;8.23;4.40;;;;;;;0.11;100.00;101048.50;1692044;83;21118;-58
2022/01/09 01:14:59;;;;;;;9.20;4.13;;;;;;;0.11;100.00;101043.86;1695081;84;21028;-59
2022/01/09 01:17:26;;;;;;;10.63;4.35;;;;;;;0.10;100.00;101031.62;1691433;85;21761;-59
2022/01/09 01:19:54;;;;;;;9.68;3.95;;;;;;;0.04;100.00;101020.20;1691154;85;21086;-59
2022/01/09 01:22:22;;;;;;;8.70;4.47;;;;;;;-0.02;100.00;101026.45;1691927;84;21106;-58
2022/01/09 01:24:50;;;;;;;11.83;4.95;;;;;;;-0.03;100.00;101028.14;1690916;85;21078;-59
2022/01/09 01:27:18;;;;;;;8.93;4.72;;;;;;;-0.01;100.00;101020.56;1692840;83;21532;-58
2022/01/09 01:29:44;;;;;;;9.93;5.12;;;;;;;0.01;100.00;101019.31;1689611;84;21071;-58
2022/01/09 01:32:11;;;;;;;9.28;4.53;;;;;;;0.03;100.00;101023.55;1691117;85;21055;-58
2022/01/09 01:34:40;;;;;;;11.20;5.10;;;;;;;0.04;100.00;101025.26;1692414;83;21056;-59
2022/01/09 01:37:06;;;;;;;10.45;4.62;;;;;;;0.01;100.00;101016.78;1691381;84;21539;-59
2022/01/09 01:39:33;;;;;;;8.85;4.50;;;;;;;0.04;100.00;101023.99;1691930;84;21084;-59
2022/01/09 01:42:00;;;;;;;9.03;4.15;;;;;;;0.06;100.00;101019.79;1693581;84;21063;-59
2022/01/09 01:44:43;;;;;;;8.75;4.62;;;;;;;0.06;100.00;101013.86;1691742;84;21052;-58
2022/01/09 01:47:10;;;;;;;11.15;5.45;;;;;;;0.08;100.00;101008.38;1667498;85;21536;-59
2022/01/09 01:49:37;;;;;;;11.12;4.80;;;;;;;0.09;100.00;101005.03;1693060;84;21511;-59
2022/01/09 01:52:05;;;;;;;10.25;4.95;;;;;;;0.10;100.00;101002.52;1697517;84;21130;-58
2022/01/09 01:54:33;;;;;;;10.15;4.90;;;;;;;0.13;100.00;100993.66;1695059;83;21606;-59
2022/01/09 01:57:00;;;;;;;12.45;5.45;;;;;;;0.07;100.00;100992.36;1692354;83;21047;-58
2022/01/09 01:59:27;;;;;;;11.38;5.35;;;;;;;0.09;100.00;100986.89;1671947;84;21055;-58
2022/01/09 02:01:54;;;;;;;14.13;5.80;;;;;;;0.08;100.00;100977.61;1695770;84;21015;-58
2022/01/09 02:04:21;;;;;;;11.18;5.58;;;;;;;0.14;100.00;100978.05;1691242;85;21096;-59
2022/01/09 02:06:51;;;;;;;12.90;5.12;;;;;;;0.11;100.00;100968.76;1696638;84;21063;-59
2022/01/09 02:09:18;;;;;;;12.60;6.28;;;;;;;0.15;100.00;100971.73;1698123;84;21039;-58
2022/01/09 02:11:46;;;;;;;14.45;6.28;;;;;;;0.10;100.00;100963.67;1691876;84;21572;-59
2022/01/09 02:14:13;;;;;;;16.65;6.25;;;;;;;0.16;100.00;100963.32;1693514;84;21043;-58
2022/01/09 02:16:42;;;;;;;15.28;6.37;;;;;;;0.11;100.00;100962.43;1690641;83;21036;-58
2022/01/09 02:19:13;;;;;;;16.17;6.03;;;;;;;0.12;100.00;100951.48;1671525;84;21094;-58
2022/01/09 02:21:42;;;;;;;15.90;6.35;;;;;;;0.09;100.00;100945.13;1691209;84;21110;-59
2022/01/09 02:24:12;;;;;;;16.05;6.62;;;;;;;0.13;100.00;100945.56;1693512;84;21031;-59
2022/01/09 02:26:41;;;;;;;17.82;6.95;;;;;;;0.11;100.00;100932.48;1693368;84;21064;-58
2022/01/09 02:29:08;;;;;;;17.02;6.53;;;;;;;0.12;100.00;100931.23;1691243;84;21074;-59
2022/01/09 02:31:36;;;;;;;13.30;5.87;;;;;;;0.19;100.00;100929.57;1692614;83;21515;-59
2022/01/09 02:34:03;;;;;;;19.37;7.65;;;;;;;0.17;100.00;100925.76;1691621;85;21063;-59
2022/01/09 02:36:31;;;;;;;16.37;6.92;;;;;;;0.19;100.00;100925.34;1691112;85;21110;-59
2022/01/09 02:38:57;;;;;;;16.00;6.90;;;;;;;0.13;100.00;100928.27;1691470;84;21532;-58
2022/01/09 02:41:24;;;;;;;15.55;7.12;;;;;;;0.16;100.00;100927.01;1690521;85;21059;-59
2022/01/09 02:43:51;;;;;;;19.00;7.58;;;;;;;0.10;100.00;100921.52;1696870;84;21071;-59
2022/01/09 02:46:40;;;;;;;20.40;7.67;;;;;;;0.15;100.00;100921.53;1691053;84;21126;-58
2022/01/09 02:48:57;;;;;;;19.02;7.28;;;;;;;0.14;100.00;100913.09;1693305;84;21535;-59
2022/01/09 02:51:25;;;;;;;15.65;7.17;;;;;;;0.17;100.00;100904.66;1692949;84;21039;-58
2022/01/09 02:53:57;;;;;;;19.62;6.90;;;;;;;0.23;100.00;100908.49;1691424;84;21091;-59
2022/01/09 02:56:20;;;;;;;15.48;7.55;;;;;;;0.22;100.00;100906.78;1694168;84;21078;-58
2022/01/09 02:58:47;;;;;;;17.12;7.20;;;;;;;0.31;100.00;100903.04;1694392;84;21582;-58
2022/01/09 03:01:14;;;;;;;13.65;6.53;;;;;;;0.26;100.00;100902.16;1692214;83;21113;-58
2022/01/09 03:03:41;;;;;;;13.85;6.03;;;;;;;0.29;100.00;100897.13;1694841;83;21628;-59
2022/01/09 03:06:09;;;;;;;15.60;7.20;;;;;;;0.27;100.00;100892.90;1694908;84;21031;-59
2022/01/09 03:08:37;;;;;;;14.50;6.47;;;;;;;0.28;100.00;100891.62;1692459;84;21524;-58
2022/01/09 03:11:04;;;;;;;12.75;6.15;;;;;;;0.23;100.00;100887.40;1691543;84;21102;-59
2022/01/09 03:13:32;;;;;;;13.38;6.30;;;;;;;0.25;100.00;100891.63;1691987;84;21068;-58
2022/01/09 03:15:59;;;;;;;14.55;6.50;;;;;;;0.27;100.00;100879.81;1692566;84;21063;-59
2022/01/09 03:18:27;;;;;;;12.80;6.05;;;;;;;0.21;100.00;100870.93;1690673;84;21040;-59
2022/01/09 03:20:54;;;;;;;23.00;6.83;;;;;;;0.17;100.00;100870.06;1691674;84;21052;-58
2022/01/09 03:23:21;;;;;;;13.90;6.12;;;;;;;0.26;100.00;100859.55;1691317;84;21078;-59
2022/01/09 03:25:48;;;;;;;12.98;5.72;;;;;;;0.28;100.00;100866.73;1691375;84;21016;-58
2022/01/09 03:28:15;;;;;;;15.80;6.72;;;;;;;0.32;100.00;100860.83;1690891;83;21531;-59
2022/01/09 03:30:43;;;;;;;13.45;6.40;;;;;;;0.26;100.00;100854.05;1692085;84;21008;-58
2022/01/09 03:33:10;;;;;;;11.73;5.65;;;;;;;0.32;100.00;100849.44;1663284;86;21059;-59
2022/01/09 03:35:37;;;;;;;17.00;7.08;;;;;;;0.25;100.00;100845.21;1635276;88;21037;-58
2022/01/09 03:38:05;;;;;;;15.08;6.78;;;;;;;0.33;100.00;100858.31;1634885;86;21590;-59
2022/01/09 03:40:32;;;;;;;13.72;6.60;;;;;;;0.32;100.00;100854.08;1662449;86;21585;-58
2022/01/09 03:42:59;;;;;;;12.28;5.95;;;;;;;0.38;100.00;100861.69;1662181;86;21065;-59
2022/01/09 03:45:26;;;;;;;14.60;6.45;;;;;;;0.38;100.00;100855.36;1666317;85;21041;-58
2022/01/09 03:47:54;;;;;;;15.88;6.90;;;;;;;0.42;100.00;100854.12;1663696;86;21077;-57
2022/01/09 03:50:21;;;;;;;14.83;7.10;;;;;;;0.34;100.00;100858.72;1662053;86;21559;-58
2022/01/09 03:52:49;;;;;;;13.68;6.33;;;;;;;0.38;100.00;100851.56;1666533;86;21065;-58
2022/01/09 03:55:20;;;;;;;12.88;6.25;;;;;;;0.37;100.00;100852.84;1663336;86;21093;-58
2022/01/09 03:57:48;;;;;;;13.35;6.37;;;;;;;0.42;100.00;100853.69;1662996;86;21093;-59
2022/01/09 04:00:19;;;;;;;14.53;6.15;;;;;;;0.38;100.00;100846.50;1662915;86;21018;-58
2022/01/09 04:02:49;;;;;;;14.65;6.53;;;;;;;0.44;100.00;100844.41;1661872;86;21585;-59
2022/01/09 04:05:16;;;;;;;12.03;5.97;;;;;;;0.42;100.00;100845.25;1663712;86;21050;-58
2022/01/09 04:07:43;;;;;;;12.98;6.50;;;;;;;0.39;100.00;100839.77;1664839;86;21522;-59
2022/01/09 04:10:10;;;;;;;15.28;8.15;;;;;;;0.46;100.00;100841.46;1663074;86;21014;-59
2022/01/09 04:12:48;;;;;;;16.07;7.75;;;;;;;0.42;100.00;100832.16;1697019;84;21067;-59
2022/01/09 04:15:10;;;;;;;13.38;6.40;;;;;;;0.47;100.00;100829.66;1695403;84;21070;-59
2022/01/09 04:17:51;;;;;;;10.30;5.17;;;;;;;0.39;100.00;100825.41;1693639;84;21062;-58
2022/01/09 04:20:12;;;;;;;;;;;;;;;0.48;100.00;100827.55;1693809;84;21516;-59
2022/01/09 04:22:40;;;;;;;11.90;5.40;;;;;;;0.47;100.00;100817.84;1693933;83;20144;-58
2022/01/09 04:25:08;;;;;;;8.75;4.90;;;;;;;0.50;100.00;100825.43;1693174;83;21051;-58
2022/01/09 04:27:36;;;;;;;10.32;5.05;;;;;;;0.43;100.00;100825.41;1690981;85;21091;-58
2022/01/09 04:30:05;;;;;;;15.63;6.83;;;;;;;0.39;100.00;100823.31;1691023;85;21047;-59
2022/01/09 04:32:33;;;;;;;20.15;7.60;;;;;;;0.44;100.00;100825.42;1691805;84;21098;-59
2022/01/09 04:35:00;;;;;;;18.87;7.28;;;;;;;0.45;100.00;100830.92;1691079;84;21079;-58
2022/01/09 04:37:28;;;;;;;13.22;5.87;;;;;;;0.46;100.00;100820.36;1692357;84;21043;-59
2022/01/09 04:39:56;;;;;;;9.60;5.08;;;;;;;0.46;100.00;100816.13;1693381;84;21099;-58
2022/01/09 04:42:30;;;;;;;11.10;5.58;;;;;;;0.49;100.00;100808.98;1692421;84;21040;-59
2022/01/09 04:44:53;;;;;;;12.37;5.85;;;;;;;0.50;100.00;100805.17;1692184;84;21071;-59
2022/01/09 04:47:19;;;;;;;9.43;4.92;;;;;;;0.49;100.00;100797.16;1692727;83;21059;-58
2022/01/09 04:49:48;;;;;;;13.00;6.08;;;;;;;0.46;100.00;100794.61;1694402;84;21083;-58
2022/01/09 04:52:19;;;;;;;15.40;6.30;;;;;;;0.50;100.00;100798.83;1691022;83;22365;-58
2022/01/09 04:54:46;;;;;;;14.73;6.87;;;;;;;0.46;100.00;100794.61;1690592;85;21138;-59
2022/01/09 04:57:13;;;;;;;13.48;5.90;;;;;;;0.50;100.00;100785.33;1692295;84;21064;-59
2022/01/09 04:59:40;;;;;;;11.75;5.95;;;;;;;0.50;100.00;100788.70;1696893;84;21059;-58
2022/01/09 05:02:07;;;;;;;8.33;5.25;;;;;;;0.49;100.00;100788.30;1696586;84;21037;-59
2022/01/09 05:04:35;;;;;;;17.27;6.90;;;;;;;0.47;100.00;100795.05;1693186;84;21059;-58
2022/01/09 05:07:04;;;;;;;13.40;6.20;;;;;;;0.54;100.00;100798.42;1695751;84;21091;-59
2022/01/09 05:09:31;;;;;;;9.50;5.72;;;;;;;0.43;100.00;100802.61;1668936;84;21613;-58
2022/01/09 05:11:58;;;;;;;10.72;5.37;;;;;;;0.51;100.00;100806.87;1694353;83;21062;-58
2022/01/09 05:14:26;;;;;;;12.30;5.55;;;;;;;0.49;100.00;100806.02;1689089;85;21016;-58
2022/01/09 05:16:52;;;;;;;12.23;5.62;;;;;;;0.55;100.00;100806.47;1692612;84;21044;-59
2022/01/09 05:19:27;;;;;;;14.23;7.20;;;;;;;0.56;100.00;100801.38;1671060;84;21044;-59
2022/01/09 05:21:49;;;;;;;12.45;5.12;;;;;;;0.54;100.00;100800.53;1694441;84;21102;-59
2022/01/09 05:24:17;;;;;;;9.60;5.17;;;;;;;0.54;100.00;100796.73;1692751;84;21072;-59
2022/01/09 05:26:43;;;;;;;8.25;4.85;;;;;;;0.56;100.00;100803.91;1690934;85;21527;-58
2022/01/09 05:29:11;;;;;;;9.10;5.40;;;;;;;0.54;100.00;100801.80;1691379;85;21083;-59
2022/01/09 05:31:39;;;;;;;9.20;5.33;;;;;;;0.62;100.00;100803.51;1694580;84;21099;-58
2022/01/09 05:34:07;;;;;;;8.10;5.00;;;;;;;0.61;100.00;100788.74;1691422;84;21084;-59
2022/01/09 05:36:34;;;;;;;9.35;4.83;;;;;;;0.62;100.00;100775.64;1691683;84;21043;-59
2022/01/09 05:39:01;;;;;;;11.22;6.00;;;;;;;0.63;100.00;100764.25;1690975;84;21016;-58
2022/01/09 05:41:27;;;;;;;8.70;4.42;;;;;;;0.55;100.00;100752.00;1691212;83;21036;-58
2022/01/09 05:43:56;;;;;;;8.18;5.10;;;;;;;0.60;100.00;100757.91;1695798;84;21141;-59
2022/01/09 05:46:23;;;;;;;8.45;4.95;;;;;;;0.62;100.00;100752.84;1693431;84;21524;-59
2022/01/09 05:48:50;;;;;;;9.45;4.83;;;;;;;0.59;100.00;100741.87;1693281;84;21016;-58
2022/01/09 05:51:17;;;;;;;7.83;4.85;;;;;;;0.62;100.00;100738.48;1692311;83;21047;-58
2022/01/09 05:53:44;;;;;;;7.35;4.50;;;;;;;0.66;100.00;100745.67;1690952;84;21111;-58
2022/01/09 05:56:11;;;;;;;8.78;4.90;;;;;;;0.69;100.00;100740.19;1693387;84;21075;-59
2022/01/09 05:58:39;;;;;;;7.80;4.75;;;;;;;0.70;100.00;100738.06;1693189;83;21067;-58
2022/01/09 06:01:07;;;;;;;8.38;4.80;;;;;;;0.71;100.00;100751.17;1693538;84;21047;-59
2022/01/09 06:03:35;;;;;;;8.78;4.85;;;;;;;0.68;100.00;100743.98;1690812;84;21051;-58
2022/01/09 06:06:02;;;;;;;12.10;4.75;;;;;;;0.65;100.00;100738.50;1694556;84;22160;-58
2022/01/09 06:08:30;;;;;;;9.15;5.12;;;;;;;0.73;100.00;100735.55;1696244;83;21024;-59
2022/01/09 06:10:57;;;;;;;9.50;4.60;;;;;;;0.65;100.00;100737.63;1694605;84;21193;-60
2022/01/09 06:13:24;;;;;;;8.00;4.50;;;;;;;0.73;100.00;100741.01;1694137;84;21063;-59
2022/01/09 06:15:51;;;;;;;8.30;4.35;;;;;;;0.77;100.00;100742.30;1697244;84;21079;-58
2022/01/09 06:18:21;;;;;;;8.28;4.83;;;;;;;0.80;100.00;100724.55;1706601;83;21071;-58
2022/01/09 06:20:49;;;;;;;9.75;5.15;;;;;;;0.82;100.00;100708.51;1706173;83;21080;-59
2022/01/09 06:23:20;;;;;;;10.30;5.33;;;;;;;0.78;100.00;100698.79;1707787;83;21087;-59
2022/01/09 06:25:48;;;;;;;8.35;5.03;;;;;;;0.78;100.00;100690.75;1716572;83;21531;-59
2022/01/09 06:28:17;;;;;;;7.87;4.08;;;;;;;0.79;100.00;100695.39;1711939;83;21571;-59
2022/01/09 06:30:44;;;;;;;6.45;4.30;;;;;;;0.76;100.00;100709.34;1710942;83;21032;-58
2022/01/09 06:33:12;;;;;;;6.33;3.77;;;;;;;0.87;100.00;100718.20;1710563;82;21076;-58
2022/01/09 06:35:41;;;;;;;9.05;5.12;;;;;;;0.86;100.00;100711.46;1711873;83;21001;-59
2022/01/09 06:38:09;;;;;;;8.50;4.75;;;;;;;0.88;100.00;100711.87;1710725;84;21060;-59
2022/01/09 06:40:36;;;;;;;8.40;4.55;;;;;;;0.86;100.00;100708.92;1707650;83;21031;-59
2022/01/09 06:43:04;;;;;;;9.33;4.78;;;;;;;0.91;100.00;100708.08;1710580;83;21112;-58
2022/01/09 06:45:31;;;;;;;7.92;4.45;;;;;;;0.91;100.00;100711.02;1717137;83;21055;-59
2022/01/09 06:47:59;;;;;;;8.93;4.62;;;;;;;0.91;100.00;100705.55;1688096;83;21520;-59
2022/01/09 06:50:27;;;;;;;8.23;4.58;;;;;;;0.92;100.00;100705.95;1726854;83;21059;-58
2022/01/09 06:52:54;;;;;;;9.50;5.10;;;;;;;0.97;100.00;100704.67;1721094;83;21099;-59
2022/01/09 06:55:21;;;;;;;8.00;4.60;;;;;;;0.91;100.00;100702.14;1712633;83;21117;-59
2022/01/09 06:57:48;;;;;;;8.50;4.53;;;;;;;0.95;100.00;100699.62;1697457;83;21035;-59
2022/01/09 07:00:17;;;;;;;7.50;4.60;;;;;;;1.00;100.00;100708.05;1696319;83;21118;-59
2022/01/09 07:02:44;;;;;;;9.53;4.60;;;;;;;1.05;100.00;100703.39;1724977;83;21067;-58
2022/01/09 07:05:12;;;;;;;8.90;5.00;;;;;;;1.10;100.00;100710.59;1714446;83;20988;-58
2022/01/09 07:07:41;;;;;;;7.85;4.78;;;;;;;1.13;100.00;100711.40;1708770;83;21154;-58
2022/01/09 07:10:10;;;;;;;8.45;4.67;;;;;;;1.14;100.00;100698.33;1717753;83;21486;-58
2022/01/09 07:12:40;;;;;;;9.98;5.67;;;;;;;1.11;100.00;100697.87;1714689;83;21068;-58
2022/01/09 07:15:07;;;;;;;6.85;4.85;;;;;;;1.03;100.00;100691.15;1720866;83;21048;-59
2022/01/09 07:17:35;;;;;;;8.70;4.83;;;;;;;1.03;100.00;100686.08;1720197;83;21091;-59
2022/01/09 07:20:03;;;;;;;10.75;5.78;;;;;;;1.00;100.00;100685.67;1719624;83;21107;-59
2022/01/09 07:22:30;;;;;;;8.30;5.35;;;;;;;0.98;100.00;100671.72;1721766;83;21040;-59
2022/01/09 07:24:58;;;;;;;10.08;5.40;;;;;;;1.06;100.00;100667.08;1711865;83;21454;-58
2022/01/09 07:27:25;;;;;;;9.78;5.37;;;;;;;1.11;100.00;100659.02;1710574;83;21009;-58
2022/01/09 07:29:51;;;;;;;12.07;6.62;;;;;;;1.12;100.00;100660.72;1710631;84;21060;-58
2022/01/09 07:32:19;;;;;;;9.75;6.30;;;;;;;1.13;100.00;100661.95;1710579;84;21049;-58
2022/01/09 07:34:47;;;;;;;11.83;6.03;;;;;;;1.13;100.00;100659.86;1710674;84;21065;-59
2022/01/09 07:37:14;;;;;;;8.90;5.42;;;;;;;1.11;100.00;100657.31;1709068;83;21536;-59
2022/01/09 07:39:41;;;;;;;13.58;8.13;;;;;;;1.12;100.00;100659.45;1714618;83;21044;-58
2022/01/09 07:42:08;;;;;;;11.48;7.33;;;;;;;1.14;100.00;100653.52;1716447;83;21028;-58
2022/01/09 07:44:37;;;;;;;10.25;6.60;;;;;;;1.25;100.00;100662.34;1689148;84;21561;-58
2022/01/09 07:47:04;;;;;;;11.90;6.80;;;;;;;1.31;100.00;100658.52;1714682;83;21032;-59
2022/01/09 07:49:31;;;;;;;10.20;6.20;;;;;;;1.34;100.00;100650.09;1711635;83;21124;-59
2022/01/09 07:51:58;;;;;;;9.67;5.77;;;;;;;1.36;100.00;100642.88;1703876;83;21056;-59
2022/01/09 07:54:25;;;;;;;12.43;6.85;;;;;;;1.33;100.00;100641.61;1697087;83;21118;-59
2022/01/09 07:56:52;;;;;;;10.95;6.40;;;;;;;1.36;100.00;100645.42;1703168;83;21083;-59
2022/01/09 07:59:22;;;;;;;14.68;8.05;;;;;;;1.42;100.00;100638.61;1701248;83;21504;-59
2022/01/09 08:01:50;;;;;;;14.13;8.03;;;;;;;1.48;100.00;100636.05;1687997;83;21012;-60
2022/01/09 08:04:18;;;;;;;12.78;7.70;;;;;;;1.48;100.00;100630.58;1695124;84;21044;-60
2022/01/09 08:06:45;;;;;;;14.93;7.90;;;;;;;1.54;100.00;100624.60;1692501;84;21035;-60
2022/01/09 08:09:13;;;;;;;32.33;16.80;;;;;;;1.53;100.00;100636.88;1690392;84;21489;-60
2022/01/09 08:11:39;;;;;;;24.23;12.60;;;;;;;1.67;100.00;100635.55;1684219;84;20996;-60
2022/01/09 08:14:06;;;;;;;22.32;12.28;;;;;;;1.66;100.00;100634.69;1691936;84;20996;-59
2022/01/09 08:16:34;;;;;;;31.97;16.52;;;;;;;1.72;100.00;100624.93;1688030;84;21074;-59
2022/01/09 08:19:00;;;;;;;28.38;15.13;;;;;;;1.83;100.00;100623.62;1696022;83;21056;-59
2022/01/09 08:21:29;;;;;;;29.67;15.88;;;;;;;1.93;100.00;100628.62;1697976;83;21015;-59
2022/01/09 08:23:57;;;;;;;24.70;13.45;;;;;;;2.03;100.00;100623.05;1692254;84;21004;-59
2022/01/09 08:26:24;;;;;;;16.20;9.15;;;;;;;1.94;100.00;100620.56;1692600;84;20972;-59
2022/01/09 08:28:50;;;;;;;14.70;8.33;;;;;;;1.85;100.00;100611.77;1690217;84;21012;-59
2022/01/09 08:31:18;;;;;;;20.25;12.23;;;;;;;1.95;100.00;100593.07;1684663;84;21018;-59
2022/01/09 08:33:45;;;;;;;14.90;7.95;;;;;;;1.95;100.00;100593.07;1696063;83;21107;-59
2022/01/09 08:36:13;;;;;;;15.13;8.80;;;;;;;1.92;100.00;100597.72;1609429;87;21088;-60
2022/01/09 08:38:42;;;;;;;14.00;7.85;;;;;;;1.95;100.00;100600.69;1635357;87;21095;-60
2022/01/09 08:41:10;;;;;;;12.98;7.03;;;;;;;1.87;100.00;100591.02;1691769;84;21537;-60
2022/01/09 08:43:38;;;;;;;11.88;7.12;;;;;;;1.85;100.00;100583.84;1695411;84;21000;-59
2022/01/09 08:46:05;;;;;;;15.83;8.48;;;;;;;1.85;100.00;100587.64;1684557;84;21041;-60
2022/01/09 08:48:32;;;;;;;18.50;7.60;;;;;;;1.82;100.00;100580.04;1691368;83;21067;-59
2022/01/09 08:50:59;;;;;;;14.80;7.97;;;;;;;1.78;100.00;100576.27;1692094;84;22135;-59
2022/01/09 08:53:27;;;;;;;16.97;8.48;;;;;;;1.86;100.00;100577.45;1695999;84;21024;-59
2022/01/09 08:55:54;;;;;;;18.10;8.85;;;;;;;1.88;100.00;100567.30;1691050;84;21095;-59
2022/01/09 08:58:21;;;;;;;18.30;9.00;;;;;;;1.89;100.00;100567.30;1697397;84;21074;-58
2022/01/09 09:00:47;;;;;;;15.15;8.05;;;;;;;1.99;100.00;100559.19;1690938;85;21495;-59
2022/01/09 09:03:14;;;;;;;24.63;12.28;;;;;;;1.99;100.00;100559.19;1638179;87;21582;-59
2022/01/09 09:05:41;;;;;;;16.52;8.40;;;;;;;2.03;100.00;100558.31;1634623;87;21060;-59
2022/01/09 09:08:09;;;;;;;18.52;9.50;;;;;;;2.03;100.00;100559.98;1638308;87;21106;-59
2022/01/09 09:10:35;;;;;;;21.42;10.82;;;;;;;2.07;100.00;100554.89;1634255;87;21092;-59
2022/01/09 09:13:02;;;;;;;22.40;11.08;;;;;;;2.12;100.00;100546.79;1644409;86;21614;-59
2022/01/09 09:15:29;;;;;;;19.35;9.45;;;;;;;2.14;100.00;100547.62;1677425;84;21099;-59
2022/01/09 09:17:56;;;;;;;18.85;10.03;;;;;;;2.06;100.00;100543.47;1641017;86;21077;-59
2022/01/09 09:20:24;;;;;;;17.92;10.00;;;;;;;2.12;100.00;100544.69;1646673;86;21048;-59
2022/01/09 09:22:52;;;;;;;22.52;11.25;;;;;;;2.09;100.00;100534.13;1676373;84;21016;-59
2022/01/09 09:25:20;;;;;;;21.30;12.03;;;;;;;2.07;100.00;100531.17;1662806;86;21094;-59
2022/01/09 09:28:06;;;;;;;20.55;11.20;;;;;;;2.10;100.00;100523.11;1662815;86;21571;-60
2022/01/09 09:30:33;;;;;;;19.30;10.28;;;;;;;2.15;100.00;100522.66;1621806;88;21043;-59
2022/01/09 09:33:02;;;;;;;17.50;9.88;;;;;;;2.12;100.00;100521.39;1624141;87;21001;-60
2022/01/09 09:35:30;;;;;;;20.90;10.43;;;;;;;2.00;100.00;100505.84;1634732;86;21012;-59
2022/01/09 09:38:01;;;;;;;20.82;10.08;;;;;;;2.00;100.00;100505.84;1630482;87;21076;-59
2022/01/09 09:40:28;;;;;;;21.35;11.40;;;;;;;2.03;100.00;100501.19;1634476;86;20995;-60
2022/01/09 09:42:55;;;;;;;22.42;11.28;;;;;;;2.12;100.00;100483.74;1635507;86;21043;-60
2022/01/09 09:45:23;;;;;;;20.75;11.40;;;;;;;2.17;100.00;100488.33;1636159;86;21025;-60
2022/01/09 09:47:51;;;;;;;19.87;10.15;;;;;;;2.17;100.00;100488.33;1619383;87;21557;-60
2022/01/09 09:50:20;;;;;;;16.70;9.23;;;;;;;2.17;100.00;100477.77;1612608;88;21500;-59
2022/01/09 09:52:49;;;;;;;18.35;9.50;;;;;;;2.23;100.00;100474.33;1613159;88;21591;-60
2022/01/09 09:55:18;;;;;;;18.85;10.55;;;;;;;2.22;100.00;100468.83;1614481;86;21066;-59
2022/01/09 09:57:46;;;;;;;19.98;10.05;;;;;;;2.26;100.00;100476.82;1616822;87;21548;-60
2022/01/09 10:00:19;;;;;;;18.50;9.70;;;;;;;2.25;100.00;100476.42;1614451;88;21066;-60
2022/01/09 10:02:51;;;;;;;23.65;11.73;;;;;;;2.29;100.00;100475.53;1616942;88;21527;-60
2022/01/09 10:05:22;;;;;;;17.98;10.60;;;;;;;2.33;100.00;100472.51;1627081;87;20967;-61
2022/01/09 10:07:53;;;;;;;21.27;10.13;;;;;;;2.37;100.00;100466.54;1625238;86;21047;-60
2022/01/09 10:10:25;;;;;;;17.02;10.08;;;;;;;2.37;100.00;100467.81;1634341;86;21084;-59
2022/01/09 10:13:10;;;;;;;18.95;9.70;;;;;;;2.40;100.00;100461.00;1602094;87;21075;-60
2022/01/09 10:15:51;;;;;;;18.17;9.73;;;;;;;2.53;100.00;100450.25;1630351;87;21513;-59
2022/01/09 10:18:43;;;;;;;20.30;10.50;;;;;;;2.65;100.00;100454.80;1639608;86;21032;-58
2022/01/09 10:21:15;;;;;;;20.57;10.53;;;;;;;2.74;100.00;100446.63;1617461;87;21076;-59
2022/01/09 10:24:12;;;;;;;19.67;10.13;;;;;;;2.66;100.00;100439.53;1611233;87;21099;-59
2022/01/09 10:26:44;;;;;;;18.30;10.00;;;;;;;2.65;100.00;100442.09;1647248;86;21533;-59
2022/01/09 10:29:11;;;;;;;22.98;11.80;;;;;;;2.65;100.00;100442.09;1635394;88;21070;-59
2022/01/09 10:31:47;;;;;;;20.55;10.75;;;;;;;2.68;100.00;100434.44;1635981;86;21035;-59
2022/01/09 10:34:18;;;;;;;20.32;11.15;;;;;;;2.68;100.00;100431.46;1642119;86;20989;-59
2022/01/09 10:36:51;;;;;;;22.90;11.68;;;;;;;2.71;100.00;100417.86;1647129;86;21044;-59
2022/01/09 10:39:28;;;;;;;21.62;11.18;;;;;;;2.78;100.00;100414.39;1663044;86;21063;-59
2022/01/09 10:42:03;;;;;;;18.82;10.15;;;;;;;2.79;100.00;100411.80;1644472;87;21049;-58
2022/01/09 10:44:34;;;;;;;19.82;10.48;;;;;;;2.78;100.00;100401.69;1632250;86;21083;-59
2022/01/09 10:47:05;;;;;;;18.32;10.38;;;;;;;2.91;100.00;100396.81;1630713;86;21020;-59
2022/01/09 10:49:50;;;;;;;21.45;11.50;;;;;;;3.03;100.00;100403.88;1628830;87;20997;-59
2022/01/09 10:52:28;;;;;;;15.95;9.53;;;;;;;3.04;100.00;100401.72;1643592;86;21066;-58
2022/01/09 10:54:58;;;;;;;18.95;10.75;;;;;;;3.03;100.00;100402.16;1627624;87;21011;-59
2022/01/09 10:57:29;;;;;;;20.95;11.63;;;;;;;3.06;100.00;100397.01;1653123;84;21071;-59
2022/01/09 11:00:09;;;;;;;22.02;11.55;;;;;;;2.98;100.00;100397.16;1635890;88;21065;-60
2022/01/09 11:02:51;;;;;;;23.25;12.68;;;;;;;3.06;100.00;100391.09;1637146;86;21483;-59
2022/01/09 11:05:18;;;;;;;20.68;11.65;;;;;;;3.09;100.00;100385.53;1640794;87;21054;-59
2022/01/09 11:07:46;;;;;;;24.87;12.18;;;;;;;3.08;100.00;100386.41;1643057;87;21085;-58
2022/01/09 11:10:16;;;;;;;23.92;12.85;;;;;;;3.08;100.00;100386.82;1642901;87;21542;-59
2022/01/09 11:12:48;;;;;;;26.20;13.68;;;;;;;3.14;100.00;100377.42;1652569;85;21519;-59
2022/01/09 11:15:18;;;;;;;34.15;17.65;;;;;;;3.23;100.00;100385.33;1617390;87;21537;-58
2022/01/09 11:17:45;;;;;;;25.37;13.95;;;;;;;3.38;100.00;100384.23;1626987;86;21593;-59
2022/01/09 11:20:13;;;;;;;29.98;16.30;;;;;;;3.41;100.00;100383.75;1627698;87;21083;-59
2022/01/09 11:23:04;;;;;;;23.75;14.33;;;;;;;3.55;100.00;100377.61;1609930;86;21104;-59